Aeroporto :
LOGIN :

Iscrizione | Disclaimer

   EN    FR    IT 

 










Sommario :    VFR   VFR Marginale   IFR   IFR Intensivo   IFR Molto Intensivo
Visibilità : 
Base nubi : 
>= 8 km
>= 3000ft
5 / 8 km
1000 / 3000 ft
1500m / 5 km
500 / 1000 ft
800 / 1500m
200 / 500 ft
< 800m
< 200 ft
Simboli :   Temporali  Nebbia  Neve Forte  Precipitazioni Forti  Vento > 20 kt
SIGMETs :   Varie  Temporali  Ghiacco  Turbolenza  Onda orograficha  Ceneri Vulcaniche







- Altitudine del aeroporto : 39 ft
- Codice IATA : ANR


EBAW - Anvers / Antwerpen Deurne

ULTIMO METAR :
  • 241420Z 30009KT CAVOK 11/M00 Q1027 NOSIG

METARs OBSOLETI :
  • 241350Z 32007KT 270V010 CAVOK 11/M00 Q1028 NOSIG
  • 241320Z 34009KT 290V010 CAVOK 11/M01 Q1028 NOSIG
  • 241250Z 32010KT 280V350 CAVOK 10/00 Q1028 NOSIG
  • 241220Z 33009KT 310V010 CAVOK 10/00 Q1029 NOSIG
  • 241150Z 33008KT 300V010 CAVOK 10/01 Q1029 NOSIG

TAF TAF EBAW
Valido dal 24 a 15 ore il 25 a 00 ore UTC


241410Z 2415/2424 31008KT CAVOK
Nessun NOTAM noto per questo aeroporto.



MetMap, La meteo Aeronautica in un colpo d'occhio ! - Copyright ORBIFLY Dicembre 2007 - Disclaimer

ORBIFLY MET'MAP TEAM :

Programmazione e sviluppo : Alexandra Zaïnal
Concezione e sviluppo : Baudouin d'Aumeries
Co-Programmazione e sviluppo : Marc-Olivier Méhu
Supporto tecnico e logistico : Manuel Goepfert
Aiuto per la traduzione : Arnaldo La Scala

Contatto : metmap@orbifly.com




FONTI E CREDITI :

   NOAA